CheckWX is a tool to help pilots better visualize weather data.  It is not intended as a substitute for an official pre-flight weather briefing.

06:22:32 UTC

EGCC METAR
Manchester Airport
Manchester, United Kingdom
Current

33 mins ago

EGCC 220550Z AUTO 05004KT 9999 NCD 11/02 Q1009 NOSIG
Observed
Apr-22 @ 05:50 UTC
Wind
  • 050° at 4 KTS
Visibility
10,000+ meters
Flight Rules
VFR
Cloud Levels
  • Clear skies
Temperature
11°C / 52°F
Dewpoint
C / 36°F
Humidity
54%
Altimeter
29.79" Hg
Pressure
1008.92 hPa
Previous

1 hour ago

EGCC 220520Z AUTO VRB02KT 9999 NCD 12/00 Q1009 NOSIG
Observed
Apr-22 @ 05:20 UTC
Wind
  • Variable at 2 KTS
Visibility
10,000+ meters
Flight Rules
VFR
Cloud Levels
  • Clear skies
Temperature
12°C / 54°F
Dewpoint
C / 32°F
Humidity
44%
Altimeter
29.79" Hg
Pressure
1008.92 hPa
Previous

2 hours ago

EGCC 220450Z AUTO VRB03KT 9999 NCD 12/M00 Q1009 NOSIG
Observed
Apr-22 @ 04:50 UTC
Wind
  • Variable at 3 KTS
Visibility
10,000+ meters
Flight Rules
VFR
Cloud Levels
  • Clear skies
Temperature
12°C / 54°F
Dewpoint
C / 32°F
Humidity
44%
Altimeter
29.79" Hg
Pressure
1008.92 hPa